Skip Navigation Links
NOAA logo - Click to go to the NOAA homepage
NOAA's National Weather Service
Alaska Aviation Weather Unit
  NWS logo - Click to go to the NWS homepage
Left Navbar Graphic     23 AKDT = 07 GMT

   
NOAA is celebrating 200 years of science, service, and stewardship. Visit the NOAA 200th celebration Web site to learn more.
USA.gov is the U.S. Government's official Web portal to all Federal, state and local government Web resources and services.
Facebook
NWS on Facebook

Important Change Regarding the AAWU Web Presence

 

Over the last several months, the AAWU has been working to navigate its webpages to a nationally supported server. Security, as well as other needs, have necessitated the change.  In the process, we have made an effort to enhance the functionality of our website, as well as some of our products. As of June 20, 2017, aawu.arh.noaa.gov will be discontinued. The new AAWU web address is weather.gov/aawu. It is now live and will run in-parallel with the old site until it is discontinued. Please send any feedback or questions regarding the new webpages to nws.ar.aawu.webauthors@noaa.gov.  Thank you for your patience during this time of transition.
AAWU Home :: Display TAF Add Bookmark
TAF CYZY 240638Z 2407/2409 13005KT P6SM SCT020 OVC040 TEMPO 2407/2409
     5SM -SHRA BR BKN020 OVC040
    RMK FCST BASED ON AUTO OBS. NXT FCST WILL BE ISSUED AT 241445Z=

METAR CYZY 240100Z AUTO 33005KT 300V080 9SM -RA OVC046 08/05 A2962 RMK SLP046 DENSITY ALT 2300FT= METAR CYZY 240200Z AUTO VRB02KT 6SM -RA BR OVC040 08/06 A2963 RMK SLP050= METAR CYZY 240300Z AUTO 18004KT 160V260 9SM -RA SCT014 BKN055 OVC072 08/07 A2962 RMK SLP043= CYZY 240307Z AUTO 19005KT 9SM SCT014 BKN065 BKN079 OVC091 08/06 A2962 RMK SLP044= METAR CYZY 240400Z AUTO 13004KT 9SM BKN041 OVC049 07/06 A2961 RMK SLP042= METAR CYZY 240500Z AUTO 14005KT 9SM OVC039 07/06 A2962 RMK SLP046= METAR CYZY 240600Z AUTO 13004KT 120V190 9SM OVC039 07/06 A2961 RMK SLP044= METAR CYZY 240700Z AUTO VRB02KT 9SM OVC037 07/06 A2962 RMK SLP043= CYZY 240713Z AUTO 06002KT 9SM -RA OVC037 07/06 A2962 RMK SLP043=
 Alaska TAF Map

NOAA's National Weather Service
Alaska Aviation Weather Unit
6930 Sand Lake Road
Anchorage, AK 99502-1845
Disclaimer
Credits
Glossary
Privacy Policy
About Us
Career Opportunities
Contact AAWU Internet Services Site last modified: April, 17th 2012